createdAt,value
2018-12-14T00:00:55.857Z,94960.68
2018-12-14T00:03:24.554Z,94955.36
2018-12-14T00:05:53.257Z,94952.14
2018-12-14T00:08:21.989Z,94958.23
2018-12-14T00:10:50.737Z,94964.61
2018-12-14T00:13:19.975Z,94961.84
2018-12-14T00:15:48.631Z,94967.97
2018-12-14T00:18:17.330Z,94974.88
2018-12-14T00:20:46.004Z,94970.84
2018-12-14T00:23:14.706Z,94981.34
2018-12-14T00:25:43.519Z,94985.03
2018-12-14T00:28:12.220Z,94987.47
2018-12-14T00:30:40.883Z,94986.70
2018-12-14T00:33:09.570Z,94982.16
2018-12-14T00:35:38.770Z,94986.33
2018-12-14T00:38:07.441Z,94983.06
2018-12-14T00:40:36.170Z,94988.90
2018-12-14T00:43:04.945Z,94985.30
2018-12-14T00:45:33.617Z,94986.38
2018-12-14T00:48:02.409Z,94982.98
2018-12-14T00:50:31.096Z,94984.61
2018-12-14T00:52:59.831Z,94991.66
2018-12-14T00:55:28.595Z,94991.17
2018-12-14T00:57:57.370Z,94991.90
2018-12-14T01:00:26.185Z,94980.15
2018-12-14T01:02:54.957Z,94983.69
2018-12-14T01:05:23.719Z,94989.20
2018-12-14T01:07:52.468Z,94992.13
2018-12-14T01:10:21.163Z,94988.80
2018-12-14T01:12:49.917Z,94986.06
2018-12-14T01:15:18.658Z,94984.48
2018-12-14T01:17:47.385Z,94985.64
2018-12-14T01:20:16.324Z,94985.22
2018-12-14T01:22:45.081Z,94985.83
2018-12-14T01:25:14.308Z,94981.29
2018-12-14T01:27:43.024Z,94981.00
2018-12-14T01:30:12.336Z,94991.65
2018-12-14T01:32:41.022Z,94981.22
2018-12-14T01:35:09.773Z,94990.70
2018-12-14T01:37:38.431Z,94977.39
2018-12-14T01:40:08.899Z,94982.64
2018-12-14T01:42:37.626Z,94986.28
2018-12-14T01:45:06.832Z,94980.14
2018-12-14T01:47:35.816Z,94983.05
2018-12-14T01:50:06.215Z,94984.36
2018-12-14T01:52:35.243Z,94981.08
2018-12-14T01:55:04.918Z,94978.70
2018-12-14T01:57:34.152Z,94982.45
2018-12-14T02:00:07.053Z,94987.63
2018-12-14T02:02:35.723Z,94981.63
2018-12-14T02:05:05.217Z,94982.78
2018-12-14T02:07:33.938Z,94989.06
2018-12-14T02:10:02.682Z,94984.75
2018-12-14T02:12:31.490Z,94980.48
2018-12-14T02:15:00.346Z,94982.09
2018-12-14T02:17:29.159Z,94984.36
2018-12-14T02:19:58.786Z,94978.69
2018-12-14T02:22:27.562Z,94979.50
2018-12-14T02:24:56.731Z,94981.10
2018-12-14T02:27:25.471Z,94975.42
2018-12-14T02:29:54.857Z,94969.79
2018-12-14T02:32:23.898Z,94975.30
2018-12-14T02:34:52.912Z,94976.09
2018-12-14T02:37:21.639Z,94986.25
2018-12-14T02:39:50.360Z,94976.59
2018-12-14T02:42:19.351Z,94980.34
2018-12-14T02:44:48.519Z,94978.85
2018-12-14T02:47:17.262Z,94975.92
2018-12-14T02:49:46.042Z,94975.84
2018-12-14T02:52:14.842Z,94972.84
2018-12-14T02:54:43.777Z,94968.95
2018-12-14T02:57:12.634Z,94972.55
2018-12-14T02:59:41.576Z,94966.10
2018-12-14T03:02:10.776Z,94963.80
2018-12-14T03:04:39.497Z,94959.84
2018-12-14T03:07:08.338Z,94969.56
2018-12-14T03:09:37.097Z,94970.68
2018-12-14T03:12:05.864Z,94962.48
2018-12-14T03:14:34.983Z,94964.94
2018-12-14T03:17:04.301Z,94964.26
2018-12-14T03:19:32.979Z,94960.11
2018-12-14T03:22:01.688Z,94968.59
2018-12-14T03:24:30.451Z,94968.80
2018-12-14T03:26:59.367Z,94961.38
2018-12-14T03:29:28.043Z,94953.77
2018-12-14T03:31:56.785Z,94950.09
2018-12-14T03:34:25.490Z,94949.28
2018-12-14T03:36:54.199Z,94953.50
2018-12-14T03:39:23.051Z,94950.35
2018-12-14T03:41:51.781Z,94948.24
2018-12-14T03:44:20.556Z,94948.80
2018-12-14T03:46:49.312Z,94950.02
2018-12-14T03:49:17.974Z,94942.91
2018-12-14T03:51:46.761Z,94948.02
2018-12-14T03:54:22.498Z,94946.39
2018-12-14T03:56:51.215Z,94947.68
2018-12-14T03:59:19.980Z,94950.47
2018-12-14T04:01:48.706Z,94953.78
2018-12-14T04:04:17.405Z,94957.41
2018-12-14T04:06:46.118Z,94950.13
2018-12-14T04:09:14.851Z,94960.58
2018-12-14T04:11:43.597Z,94959.33
2018-12-14T04:14:12.765Z,94967.86
2018-12-14T04:16:41.532Z,94966.23
2018-12-14T04:19:10.300Z,94958.09
2018-12-14T04:21:39.023Z,94959.00
2018-12-14T04:24:08.112Z,94958.94
2018-12-14T04:26:36.861Z,94967.73
2018-12-14T04:29:05.619Z,94961.67
2018-12-14T04:31:34.276Z,94970.37
2018-12-14T04:34:03.022Z,94959.89
2018-12-14T04:36:31.767Z,94960.28
2018-12-14T04:39:00.624Z,94969.52
2018-12-14T04:41:29.414Z,94974.55
2018-12-14T04:43:58.173Z,94962.47
2018-12-14T04:46:26.946Z,94958.86
2018-12-14T04:48:55.627Z,94956.28
2018-12-14T04:51:24.344Z,94964.71
2018-12-14T04:53:53.080Z,94957.70
2018-12-14T04:56:21.809Z,94963.81
2018-12-14T04:58:50.522Z,94951.73
2018-12-14T05:01:19.229Z,94959.68
2018-12-14T05:03:48.387Z,94961.87
2018-12-14T05:06:17.116Z,94961.45
2018-12-14T05:08:45.858Z,94971.08
2018-12-14T05:11:14.669Z,94969.73
2018-12-14T05:13:43.459Z,94962.05
2018-12-14T05:16:12.200Z,94966.47
2018-12-14T05:18:40.874Z,94959.89
2018-12-14T05:21:09.761Z,94960.37
2018-12-14T05:23:38.586Z,94964.02
2018-12-14T05:26:07.332Z,94969.61
2018-12-14T05:28:36.164Z,94968.11
2018-12-14T05:31:04.898Z,94979.23
2018-12-14T05:33:33.631Z,94980.03
2018-12-14T05:36:02.417Z,94984.77
2018-12-14T05:38:31.119Z,94989.80
2018-12-14T05:40:59.810Z,94995.59
2018-12-14T05:43:28.808Z,94992.73
2018-12-14T05:45:57.523Z,94993.16
2018-12-14T05:48:26.243Z,94997.08
2018-12-14T05:50:54.968Z,94993.48
2018-12-14T05:53:23.707Z,95004.00
2018-12-14T05:55:52.411Z,95002.19
2018-12-14T05:58:21.146Z,95004.89
2018-12-14T06:00:49.851Z,95005.03
2018-12-14T06:03:18.573Z,95010.32
2018-12-14T06:05:47.774Z,95017.03
2018-12-14T06:08:16.479Z,95016.42
2018-12-14T06:10:45.218Z,95013.94
2018-12-14T06:13:14.697Z,95015.89
2018-12-14T06:15:43.740Z,95018.08
2018-12-14T06:18:12.572Z,95020.05
2018-12-14T06:20:41.342Z,95025.48
2018-12-14T06:23:10.021Z,95023.45
2018-12-14T06:25:38.728Z,95023.37
2018-12-14T06:28:07.526Z,95023.58
2018-12-14T06:30:36.224Z,95027.62
2018-12-14T06:33:04.895Z,95030.76
2018-12-14T06:35:33.565Z,95032.30
2018-12-14T06:38:02.232Z,95033.94
2018-12-14T06:40:31.377Z,95042.31
2018-12-14T06:43:00.112Z,95050.40
2018-12-14T06:45:28.832Z,95056.12
2018-12-14T06:47:57.553Z,95052.51
2018-12-14T06:50:27.919Z,95051.42
2018-12-14T06:52:57.371Z,95052.50
2018-12-14T06:55:26.158Z,95059.39
2018-12-14T06:57:55.234Z,95064.26
2018-12-14T07:00:24.012Z,95058.27
2018-12-14T07:02:52.778Z,95062.97
2018-12-14T07:05:21.480Z,95065.84
2018-12-14T07:07:50.280Z,95071.20
2018-12-14T07:10:19.427Z,95069.41
2018-12-14T07:12:48.280Z,95069.09
2018-12-14T07:15:17.056Z,95072.63
2018-12-14T07:17:46.267Z,95067.33
2018-12-14T07:20:15.040Z,95073.95
2018-12-14T07:22:43.870Z,95077.66
2018-12-14T07:25:13.559Z,95077.84
2018-12-14T07:27:42.562Z,95073.23
2018-12-14T07:30:11.331Z,95077.66
2018-12-14T07:32:40.068Z,95081.05
2018-12-14T07:35:09.298Z,95085.52
2018-12-14T07:37:38.005Z,95080.27
2018-12-14T07:40:08.563Z,95081.35
2018-12-14T07:42:38.693Z,95085.19
2018-12-14T07:45:07.891Z,95077.83
2018-12-14T07:47:36.857Z,95076.49
2018-12-14T07:50:07.360Z,95083.08
2018-12-14T07:52:36.021Z,95082.73
2018-12-14T07:55:05.125Z,95081.36
2018-12-14T07:57:33.960Z,95085.25
2018-12-14T08:00:02.784Z,95081.31
2018-12-14T08:02:32.071Z,95079.00
2018-12-14T08:05:01.116Z,95085.23
2018-12-14T08:07:29.941Z,95086.83
2018-12-14T08:09:58.714Z,95082.14
2018-12-14T08:12:27.358Z,95084.73
2018-12-14T08:14:56.130Z,95090.15
2018-12-14T08:17:24.873Z,95085.67
2018-12-14T08:19:53.948Z,95088.39
2018-12-14T08:22:22.734Z,95090.08
2018-12-14T08:24:51.530Z,95081.45
2018-12-14T08:27:20.586Z,95081.67
2018-12-14T08:29:49.352Z,95081.80
2018-12-14T08:32:18.872Z,95078.40
2018-12-14T08:34:50.923Z,95077.85
2018-12-14T08:37:18.537Z,95067.25
2018-12-14T08:39:47.283Z,95068.70
2018-12-14T08:42:16.017Z,95079.13
2018-12-14T08:44:44.785Z,95080.38
2018-12-14T08:47:13.770Z,95074.17
2018-12-14T08:49:42.471Z,95072.71
2018-12-14T08:52:11.281Z,95071.70
2018-12-14T08:54:39.971Z,95060.93
2018-12-14T08:57:08.671Z,95067.23
2018-12-14T08:59:37.365Z,95066.41
2018-12-14T09:02:06.094Z,95064.64
2018-12-14T09:04:34.892Z,95058.33
2018-12-14T09:07:03.626Z,95056.40
2018-12-14T09:09:32.359Z,95056.33
2018-12-14T09:12:01.662Z,95050.28
2018-12-14T09:14:30.477Z,95054.73
2018-12-14T09:16:59.171Z,95052.32
2018-12-14T09:19:27.908Z,95053.90
2018-12-14T09:21:56.730Z,95056.13
2018-12-14T09:24:25.480Z,95046.59
2018-12-14T09:26:54.211Z,95040.20
2018-12-14T09:29:23.387Z,95044.25
2018-12-14T09:31:52.396Z,95042.13
2018-12-14T09:34:21.200Z,95034.30
2018-12-14T09:36:50.479Z,95030.80
2018-12-14T09:39:19.241Z,95027.54
2018-12-14T09:41:48.006Z,95031.42
2018-12-14T09:44:16.776Z,95028.84
2018-12-14T09:46:45.950Z,95025.36
2018-12-14T09:49:14.638Z,95031.36
2018-12-14T09:51:43.376Z,95025.78
2018-12-14T09:54:12.127Z,95025.09
2018-12-14T09:56:40.880Z,95027.13
2018-12-14T09:59:09.649Z,95022.77
2018-12-14T10:01:38.386Z,95023.33
2018-12-14T10:04:07.471Z,95020.88
2018-12-14T10:06:36.214Z,95020.45
2018-12-14T10:09:07.329Z,95021.16
2018-12-14T10:11:36.236Z,95017.38
2018-12-14T10:14:05.416Z,95017.14
2018-12-14T10:16:34.122Z,95013.45
2018-12-14T10:19:03.446Z,94999.33
2018-12-14T10:21:32.530Z,94996.88
2018-12-14T10:24:01.276Z,94994.97
2018-12-14T10:26:30.048Z,94991.16
2018-12-14T10:28:58.838Z,94993.69
2018-12-14T10:31:27.756Z,94995.13
2018-12-14T10:33:56.500Z,94988.09
2018-12-14T10:36:25.312Z,94978.20
2018-12-14T10:38:54.077Z,94989.91
2018-12-14T10:41:22.793Z,94986.67
2018-12-14T10:43:51.509Z,94989.28
2018-12-14T10:46:20.271Z,94996.73
2018-12-14T10:48:49.081Z,94998.05
2018-12-14T10:51:17.821Z,94981.75
2018-12-14T10:53:46.529Z,94989.28
2018-12-14T10:56:15.254Z,94991.33
2018-12-14T10:58:44.430Z,94994.24
2018-12-14T11:01:18.406Z,94973.05
2018-12-14T11:03:47.132Z,94978.85
2018-12-14T11:06:15.962Z,94976.44
2018-12-14T11:08:48.984Z,94971.81
2018-12-14T11:11:18.027Z,94966.56
2018-12-14T11:13:46.849Z,94969.23
2018-12-14T11:16:15.660Z,94973.98
2018-12-14T11:18:44.444Z,94973.42
2018-12-14T11:21:13.195Z,94969.31
2018-12-14T11:23:41.939Z,94972.92
2018-12-14T11:26:10.755Z,94967.45
2018-12-14T11:28:39.459Z,94962.23
2018-12-14T11:31:08.248Z,94960.83
2018-12-14T11:33:36.925Z,94960.11
2018-12-14T11:36:05.642Z,94965.93
2018-12-14T11:38:34.360Z,94970.39
2018-12-14T11:41:03.125Z,94969.09
2018-12-14T11:43:31.917Z,94967.27
2018-12-14T11:46:01.623Z,94955.61
2018-12-14T11:48:30.359Z,94951.67
2018-12-14T11:50:59.126Z,94945.33
2018-12-14T11:53:27.962Z,94948.83
2018-12-14T11:55:57.567Z,94948.60
2018-12-14T11:58:26.778Z,94950.08
2018-12-14T12:00:55.548Z,94935.07
2018-12-14T12:03:24.596Z,94938.63
2018-12-14T12:05:53.595Z,94931.38
2018-12-14T12:08:22.737Z,94923.45
2018-12-14T12:10:51.458Z,94933.48
2018-12-14T12:13:20.271Z,94931.19
2018-12-14T12:15:49.417Z,94923.36
2018-12-14T12:18:18.052Z,94916.08
2018-12-14T12:20:46.779Z,94922.51
2018-12-14T12:23:15.486Z,94926.09
2018-12-14T12:25:44.222Z,94926.34
2018-12-14T12:28:12.940Z,94924.27
2018-12-14T12:30:41.707Z,94927.30
2018-12-14T12:33:10.485Z,94933.72
2018-12-14T12:35:39.220Z,94931.19
2018-12-14T12:38:07.987Z,94936.31
2018-12-14T12:40:36.753Z,94932.34
2018-12-14T12:43:05.691Z,94927.63
2018-12-14T12:45:34.404Z,94931.08
2018-12-14T12:48:03.145Z,94933.81
2018-12-14T12:50:32.221Z,94934.94
2018-12-14T12:53:00.913Z,94939.72
2018-12-14T12:55:29.624Z,94936.75
2018-12-14T12:57:58.358Z,94941.93
2018-12-14T13:00:27.532Z,94937.70
2018-12-14T13:02:56.548Z,94938.09
2018-12-14T13:05:25.449Z,94944.61
2018-12-14T13:07:54.523Z,94937.50
2018-12-14T13:10:41.663Z,94934.28
2018-12-14T13:13:10.901Z,94934.24
2018-12-14T13:15:39.628Z,94933.66
2018-12-14T13:18:08.372Z,94935.31
2018-12-14T13:20:37.054Z,94938.86
2018-12-14T13:23:06.806Z,94931.85
2018-12-14T13:25:35.654Z,94935.41
2018-12-14T13:28:05.429Z,94934.94
2018-12-14T13:30:34.613Z,94939.05
2018-12-14T13:33:03.481Z,94937.27
2018-12-14T13:35:32.665Z,94930.98
2018-12-14T13:38:02.136Z,94936.61
2018-12-14T13:40:30.909Z,94937.22
2018-12-14T13:42:59.625Z,94934.30
2018-12-14T13:45:28.898Z,94934.02
2018-12-14T13:47:57.921Z,94942.89
2018-12-14T13:50:26.713Z,94942.98
2018-12-14T13:52:55.440Z,94936.02
2018-12-14T13:55:24.179Z,94943.50
2018-12-14T13:57:52.934Z,94946.48
2018-12-14T14:00:21.694Z,94939.19
2018-12-14T14:02:50.448Z,94942.26
2018-12-14T14:05:19.227Z,94948.88
2018-12-14T14:07:48.031Z,94946.29
2018-12-14T14:10:16.784Z,94938.23
2018-12-14T14:12:45.536Z,94934.64
2018-12-14T14:15:20.726Z,94950.36
2018-12-14T14:17:45.999Z,94938.72
2018-12-14T14:20:14.763Z,94938.28
2018-12-14T14:22:43.527Z,94942.50
2018-12-14T14:25:17.438Z,94952.63
2018-12-14T14:27:43.087Z,94952.78
2018-12-14T14:30:12.156Z,94956.03
2018-12-14T14:35:08.051Z,94961.26
2018-12-14T14:37:36.795Z,94961.59
2018-12-14T14:40:06.284Z,94969.27
2018-12-14T14:42:35.022Z,94970.61
2018-12-14T14:45:04.306Z,94966.11
2018-12-14T14:47:33.073Z,94965.81
2018-12-14T14:50:01.811Z,94961.65
2018-12-14T14:52:30.640Z,94970.19
2018-12-14T14:54:59.414Z,94968.70
2018-12-14T14:57:29.086Z,94964.53
2018-12-14T14:59:57.949Z,94960.24
2018-12-14T15:02:26.650Z,94960.30
2018-12-14T15:04:55.548Z,94966.44
2018-12-14T15:07:24.287Z,94972.30
2018-12-14T15:09:52.991Z,94958.09
2018-12-14T15:12:21.744Z,94956.95
2018-12-14T15:14:50.470Z,94963.91
2018-12-14T15:17:19.533Z,94972.21
2018-12-14T15:19:48.298Z,94958.23
2018-12-14T15:22:17.004Z,94958.68
2018-12-14T15:24:45.798Z,94954.73
2018-12-14T15:27:14.580Z,94959.93
2018-12-14T15:29:43.263Z,94960.63
2018-12-14T15:32:12.499Z,94962.55
2018-12-14T15:34:41.286Z,94961.45
2018-12-14T15:37:10.097Z,94968.07
2018-12-14T15:39:38.886Z,94968.02
2018-12-14T15:42:07.844Z,94964.04
2018-12-14T15:44:36.746Z,94963.16
2018-12-14T15:47:08.032Z,94963.21
2018-12-14T15:49:38.446Z,94972.27
2018-12-14T15:52:07.299Z,94972.38
2018-12-14T15:54:36.805Z,94972.61
2018-12-14T15:57:07.175Z,94965.59
2018-12-14T15:59:41.496Z,94972.75
2018-12-14T16:02:10.646Z,94964.84
2018-12-14T16:04:39.641Z,94970.45
2018-12-14T16:07:08.970Z,94975.34
2018-12-14T16:09:38.542Z,94970.29
2018-12-14T16:12:10.032Z,94965.27
2018-12-14T16:14:40.083Z,94967.17
2018-12-14T16:17:09.594Z,94968.47
2018-12-14T16:19:39.336Z,94968.33
2018-12-14T16:22:08.216Z,94980.25
2018-12-14T16:24:36.912Z,94977.53
2018-12-14T16:27:05.975Z,94974.27
2018-12-14T16:29:35.564Z,94975.64
2018-12-14T16:32:04.840Z,94990.29
2018-12-14T16:34:33.630Z,94980.81
2018-12-14T16:37:02.343Z,94979.11
2018-12-14T16:39:31.403Z,94981.44
2018-12-14T16:42:00.208Z,94984.36
2018-12-14T16:44:29.019Z,94982.16
2018-12-14T16:46:58.205Z,94990.36
2018-12-14T16:49:26.938Z,94992.54
2018-12-14T16:51:55.642Z,94980.60
2018-12-14T16:54:24.354Z,94988.56
2018-12-14T16:56:53.580Z,94980.63
2018-12-14T16:59:22.670Z,94989.06
2018-12-14T17:01:51.977Z,94977.61
2018-12-14T17:04:21.067Z,94968.56
2018-12-14T17:06:50.185Z,94979.80
2018-12-14T17:09:18.930Z,94970.53
2018-12-14T17:11:47.856Z,94974.88
2018-12-14T17:14:16.721Z,94969.70
2018-12-14T17:16:45.712Z,94964.76
2018-12-14T17:19:14.498Z,94973.31
2018-12-14T17:21:43.270Z,94960.57
2018-12-14T17:24:18.565Z,94965.22
2018-12-14T17:26:50.971Z,94957.04
2018-12-14T17:29:19.832Z,94950.09
2018-12-14T17:31:48.653Z,94942.19
2018-12-14T17:34:17.778Z,94950.93
2018-12-14T17:36:46.539Z,94947.31
2018-12-14T17:39:15.351Z,94937.03
2018-12-14T17:41:44.128Z,94939.77
2018-12-14T17:44:12.816Z,94947.36
2018-12-14T17:46:42.144Z,94954.86
2018-12-14T17:49:11.009Z,94939.48
2018-12-14T17:51:40.438Z,94938.33
2018-12-14T17:54:09.224Z,94943.84
2018-12-14T17:56:37.975Z,94957.98
2018-12-14T17:59:06.936Z,94959.92
2018-12-14T18:01:35.758Z,94943.89
2018-12-14T18:04:04.663Z,94958.41
2018-12-14T18:06:33.414Z,94956.16
2018-12-14T18:09:04.411Z,94958.13
2018-12-14T18:11:33.183Z,94953.23
2018-12-14T18:14:01.949Z,94956.83
2018-12-14T18:16:31.312Z,94949.09
2018-12-14T18:19:00.411Z,94935.45
2018-12-14T18:21:29.166Z,94941.39
2018-12-14T18:23:57.845Z,94934.22
2018-12-14T18:26:26.824Z,94940.01
2018-12-14T18:28:55.534Z,94938.05
2018-12-14T18:31:27.150Z,94938.98
2018-12-14T18:33:55.966Z,94941.03
2018-12-14T18:36:24.712Z,94943.62
2018-12-14T18:38:53.420Z,94937.91
2018-12-14T18:41:23.089Z,94942.75
2018-12-14T18:43:51.852Z,94935.09
2018-12-14T18:46:20.586Z,94931.86
2018-12-14T18:48:49.335Z,94932.05
2018-12-14T18:51:18.064Z,94940.58
2018-12-14T18:53:56.513Z,94948.32
2018-12-14T18:56:25.369Z,94954.33
2018-12-14T18:58:54.261Z,94942.21
2018-12-14T19:01:23.336Z,94941.33
2018-12-14T19:03:53.349Z,94950.84
2018-12-14T19:06:24.884Z,94965.77
2018-12-14T19:08:53.939Z,94965.27
2018-12-14T19:11:22.839Z,94957.45
2018-12-14T19:13:51.560Z,94948.53
2018-12-14T19:16:20.921Z,94939.63
2018-12-14T19:18:49.900Z,94947.70
2018-12-14T19:21:18.768Z,94948.34
2018-12-14T19:23:47.553Z,94959.00
2018-12-14T19:26:16.276Z,94947.39
2018-12-14T19:28:44.946Z,94950.17
2018-12-14T19:31:13.741Z,94947.24
2018-12-14T19:33:42.531Z,94967.54
2018-12-14T19:36:11.284Z,94952.97
2018-12-14T19:38:39.985Z,94966.30
2018-12-14T19:41:08.926Z,94953.14
2018-12-14T19:43:37.768Z,94951.52
2018-12-14T19:46:06.725Z,94941.80
2018-12-14T19:48:35.704Z,94952.16
2018-12-14T19:51:04.669Z,94947.63
2018-12-14T19:53:33.580Z,94960.51
2018-12-14T19:56:02.378Z,94954.36
2018-12-14T19:58:31.150Z,94951.26
2018-12-14T20:00:59.908Z,94947.23
2018-12-14T20:03:29.298Z,94950.83
2018-12-14T20:05:58.358Z,94942.93
2018-12-14T20:08:27.360Z,94958.08
2018-12-14T20:10:56.163Z,94947.15
2018-12-14T20:13:25.040Z,94963.97
2018-12-14T20:16:00.861Z,94962.03
2018-12-14T20:18:29.621Z,94955.08
2018-12-14T20:20:58.461Z,94961.59
2018-12-14T20:23:27.205Z,94960.25
2018-12-14T20:25:55.972Z,94952.55
2018-12-14T20:28:24.739Z,94971.47
2018-12-14T20:30:53.486Z,94942.47
2018-12-14T20:33:22.229Z,94967.95
2018-12-14T20:35:50.955Z,94957.02
2018-12-14T20:38:19.702Z,94964.13
2018-12-14T20:40:48.479Z,94963.78
2018-12-14T20:43:17.202Z,94954.73
2018-12-14T20:45:45.929Z,94953.14
2018-12-14T20:48:14.664Z,94954.84
2018-12-14T20:50:43.397Z,94957.57
2018-12-14T20:53:12.132Z,94966.80
2018-12-14T20:55:40.802Z,94960.22
2018-12-14T20:58:09.519Z,94968.13
2018-12-14T21:00:38.302Z,94949.06
2018-12-14T21:03:07.058Z,94956.48
2018-12-14T21:05:36.384Z,94958.26
2018-12-14T21:08:05.534Z,94955.87
2018-12-14T21:10:34.301Z,94941.28
2018-12-14T21:13:03.072Z,94950.36
2018-12-14T21:15:31.805Z,94962.91
2018-12-14T21:18:00.594Z,94950.28
2018-12-14T21:20:29.400Z,94952.82
2018-12-14T21:22:58.154Z,94935.98
2018-12-14T21:25:26.958Z,94941.55
2018-12-14T21:27:55.679Z,94935.04
2018-12-14T21:30:24.587Z,94925.77
2018-12-14T21:32:53.344Z,94922.86
2018-12-14T21:35:22.051Z,94916.90
2018-12-14T21:37:50.745Z,94917.20
2018-12-14T21:40:19.436Z,94913.03
2018-12-14T21:42:48.244Z,94896.34
2018-12-14T21:45:16.948Z,94899.55
2018-12-14T21:47:45.810Z,94902.91
2018-12-14T21:50:14.640Z,94903.45
2018-12-14T21:52:43.568Z,94910.91
2018-12-14T21:55:12.333Z,94896.88
2018-12-14T21:57:41.057Z,94907.56
2018-12-14T22:00:13.374Z,94888.48
2018-12-14T22:02:42.186Z,94897.83
2018-12-14T22:05:10.909Z,94912.47
2018-12-14T22:07:39.651Z,94912.52
2018-12-14T22:10:09.435Z,94898.81
2018-12-14T22:12:38.166Z,94897.19
2018-12-14T22:15:07.733Z,94915.11
2018-12-14T22:17:36.433Z,94904.46
2018-12-14T22:20:05.700Z,94900.91
2018-12-14T22:22:34.398Z,94898.66
2018-12-14T22:25:03.157Z,94886.38
2018-12-14T22:27:31.964Z,94893.30
2018-12-14T22:30:00.700Z,94893.14
2018-12-14T22:32:29.369Z,94893.91
2018-12-14T22:34:58.057Z,94896.49
2018-12-14T22:37:26.750Z,94891.12
2018-12-14T22:39:55.996Z,94901.30
2018-12-14T22:42:24.764Z,94884.66
2018-12-14T22:45:00.115Z,94877.84
2018-12-14T22:47:28.858Z,94887.81
2018-12-14T22:49:57.594Z,94873.58
2018-12-14T22:52:26.322Z,94869.08
2018-12-14T22:54:55.011Z,94869.12
2018-12-14T22:57:23.854Z,94872.63
2018-12-14T22:59:52.593Z,94863.08
2018-12-14T23:02:23.155Z,94878.81
2018-12-14T23:04:51.857Z,94862.69
2018-12-14T23:07:20.614Z,94867.24
2018-12-14T23:09:49.289Z,94867.88
2018-12-14T23:12:18.021Z,94863.55
2018-12-14T23:14:46.691Z,94872.81
2018-12-14T23:17:15.431Z,94859.90
2018-12-14T23:19:44.204Z,94869.30
2018-12-14T23:22:13.086Z,94866.22
2018-12-14T23:24:41.782Z,94872.81
2018-12-14T23:27:10.562Z,94869.59
2018-12-14T23:29:40.176Z,94870.37
2018-12-14T23:32:08.893Z,94874.95
2018-12-14T23:34:37.601Z,94860.75
2018-12-14T23:37:06.301Z,94859.45
2018-12-14T23:39:35.192Z,94860.94
2018-12-14T23:42:04.277Z,94862.67
2018-12-14T23:44:34.007Z,94863.16
2018-12-14T23:47:02.764Z,94865.79
2018-12-14T23:49:31.488Z,94871.34
2018-12-14T23:52:00.231Z,94860.94
2018-12-14T23:54:28.933Z,94852.64
2018-12-14T23:56:57.641Z,94860.08
2018-12-14T23:59:26.383Z,94865.27
